Doe Hill, Virginia
Current Conditions -  °F | °C
As of 5:15 PM on Monday 24 Nov 2014 (Local Time) from KVBW Reporting Station
Clear Clear  
Wind Chill: 64°   Ceiling: Unl
Heat Index: 64°   Visibility: 10mi
Dew Point: 50°   Wind: 9mph
Humidity: 61%   Direction: 190°S
Pressure: 29.67"   Gusts: NA
Location:  38.43°N, 79.45°W
Report Text: KVBW 242215Z AUTO 19008KT 10SM CLR 18/10 A2967 RMK AO2 T01760101
Loading
Personal Weather Stations






























Interactive Weather Map New forecast layout! Learn more

10-Day Weather Forecast

Advertisements
Track Severe Weather on mobile